[source: ADDS]
METAR
WX-Data not avlb.
(due to wrong input of icao-codes or 'allow_url_fopen' is OFF [] and cURL not enabled [1] on this server!)
TAF
TAF EDMA 180500Z 1806/1815 24008KT 9999 BKN040 BECMG 1809/1810 31014KT TEMPO 1809/1813 3000 RADZ BKN011 =
SR / SS: 04:21 / 18:14 UTC (Referenz EDMA 2014-04-18)
Start Links

PostHeaderIcon Weblinks

Links